createdAt,value
2017-04-08T06:23:48.178Z,2055
2017-04-08T06:24:28.762Z,2075
2017-04-08T06:25:09.557Z,2085
2017-04-08T06:25:50.397Z,2095
2017-04-08T06:26:32.697Z,2130
2017-04-08T06:27:11.955Z,2200
2017-04-08T06:27:52.625Z,2240
2017-04-08T06:28:33.345Z,2215
2017-04-08T06:29:14.277Z,2150
2017-04-08T06:29:55.020Z,2185
2017-04-08T06:30:35.744Z,2225
2017-04-08T06:31:17.053Z,2215
2017-04-08T06:31:57.788Z,2220
2017-04-08T06:32:38.364Z,2220
2017-04-08T06:33:18.938Z,2290
2017-04-08T06:33:59.527Z,2380
2017-04-08T06:34:40.444Z,2395
2017-04-08T06:35:21.178Z,2425
2017-04-08T06:36:01.757Z,2440
2017-04-08T06:36:42.334Z,2465
2017-04-08T06:37:23.402Z,2455
2017-04-08T06:38:04.227Z,2475
2017-04-08T06:38:45.245Z,2490
2017-04-08T06:39:25.822Z,2480
2017-04-08T06:40:06.634Z,2540
2017-04-08T06:40:47.209Z,2555
2017-04-08T06:41:27.918Z,2575
2017-04-08T06:42:08.505Z,2590
2017-04-08T06:42:49.089Z,2590
2017-04-08T06:43:29.923Z,2615
2017-04-08T06:44:11.110Z,2640
2017-04-08T06:44:52.044Z,2660
2017-04-08T06:45:32.629Z,2650
2017-04-08T06:46:13.214Z,2650
2017-04-08T06:46:54.260Z,2665
2017-04-08T06:47:34.953Z,2715
2017-04-08T06:48:15.548Z,2740
2017-04-08T06:48:56.131Z,2760
2017-04-08T06:49:36.723Z,2765
2017-04-08T06:50:17.312Z,2780
2017-04-08T06:50:57.900Z,2770
2017-04-08T06:51:38.481Z,2765
2017-04-08T06:52:19.067Z,2800
2017-04-08T06:53:00.355Z,2840
2017-04-08T06:53:41.173Z,2835
2017-04-08T06:54:21.745Z,2850
2017-04-08T06:55:02.336Z,2860
2017-04-08T06:55:42.915Z,2855
2017-04-08T06:56:23.743Z,2860
2017-04-08T06:57:04.666Z,2850
2017-04-08T06:57:45.262Z,2820
2017-04-08T06:58:25.843Z,2775
2017-04-08T06:59:06.427Z,2835
2017-04-08T06:59:47.527Z,2830
2017-04-08T07:00:28.299Z,2900
2017-04-08T07:01:09.038Z,2830
2017-04-08T07:01:49.621Z,2855
2017-04-08T07:02:30.202Z,2870
2017-04-08T07:03:10.786Z,2790
2017-04-08T07:03:51.559Z,2840
2017-04-08T07:04:32.145Z,2815
2017-04-08T07:05:12.967Z,2865
2017-04-08T07:05:53.564Z,2890
2017-04-08T07:06:34.143Z,2865
2017-04-08T07:07:14.731Z,2910
2017-04-08T07:07:55.314Z,2940
2017-04-08T07:08:35.891Z,2960
2017-04-08T07:09:16.483Z,2995
2017-04-08T07:09:57.052Z,3035
2017-04-08T07:10:37.633Z,3065
2017-04-08T07:11:18.217Z,3105
2017-04-08T07:11:58.807Z,3110
2017-04-08T07:12:39.380Z,3110
2017-04-08T07:13:19.957Z,3060
2017-04-08T07:14:00.545Z,3055
2017-04-08T07:14:41.119Z,3115
2017-04-08T07:15:21.704Z,3150
2017-04-08T07:16:02.289Z,3185
2017-04-08T07:16:42.869Z,3205
2017-04-08T07:17:23.447Z,3220
2017-04-08T07:18:04.041Z,3210
2017-04-08T07:18:44.630Z,3225
2017-04-08T07:19:25.218Z,3245
2017-04-08T07:20:05.790Z,3285
2017-04-08T07:20:46.371Z,3300
2017-04-08T07:21:26.939Z,3315
2017-04-08T07:22:07.536Z,3315
2017-04-08T07:22:48.111Z,3320
2017-04-08T07:23:28.686Z,3320
2017-04-08T07:24:09.268Z,3325
2017-04-08T07:24:49.851Z,3330
2017-04-08T07:25:30.427Z,3345
2017-04-08T07:26:11.018Z,3345
2017-04-08T07:26:51.607Z,3335
2017-04-08T07:27:32.189Z,3345
2017-04-08T07:28:12.764Z,3340
2017-04-08T07:28:53.352Z,3325
2017-04-08T07:29:33.928Z,3340
2017-04-08T07:30:14.517Z,3380
2017-04-08T07:30:55.109Z,3355
2017-04-08T07:31:35.691Z,3385
2017-04-08T07:32:16.272Z,3395
2017-04-08T07:32:56.853Z,3395
2017-04-08T07:33:37.453Z,3365
2017-04-08T07:34:18.006Z,3350
2017-04-08T07:34:58.591Z,3340
2017-04-08T07:35:39.169Z,3405
2017-04-08T07:36:19.749Z,3420
2017-04-08T07:37:00.334Z,3435
2017-04-08T07:37:40.924Z,3440
2017-04-08T07:38:21.501Z,3445
2017-04-08T07:39:02.085Z,3435
2017-04-08T07:39:42.672Z,3460
2017-04-08T07:40:23.259Z,3450
2017-04-08T07:41:03.839Z,3450
2017-04-08T07:41:44.423Z,3490
2017-04-08T07:42:25.013Z,3480
2017-04-08T07:43:05.595Z,3485
2017-04-08T07:43:46.188Z,3470
2017-04-08T07:44:26.778Z,3445
2017-04-08T07:45:07.366Z,3450
2017-04-08T07:45:47.953Z,3465
2017-04-08T07:46:28.539Z,3485
2017-04-08T07:47:09.132Z,3490
2017-04-08T07:47:49.709Z,3495
2017-04-08T07:48:30.283Z,3520
2017-04-08T07:49:10.870Z,3535
2017-04-08T07:49:51.437Z,3510
2017-04-08T07:50:32.018Z,3460
2017-04-08T07:51:12.605Z,3470
2017-04-08T07:51:53.261Z,3480
2017-04-08T07:52:34.166Z,3510
2017-04-08T07:53:15.121Z,3520
2017-04-08T07:53:56.052Z,3485
2017-04-08T07:54:36.809Z,3480
2017-04-08T07:55:17.540Z,3450
2017-04-08T07:55:58.409Z,3465
2017-04-08T07:56:39.292Z,3465
2017-04-08T07:57:19.999Z,3460
2017-04-08T07:58:00.584Z,3440
2017-04-08T07:58:41.276Z,3440
2017-04-08T07:59:22.086Z,3455
2017-04-08T08:00:02.866Z,3480
2017-04-08T08:00:43.659Z,3480
2017-04-08T08:01:24.242Z,3485
2017-04-08T08:02:04.935Z,3460
2017-04-08T08:02:46.010Z,3455
2017-04-08T08:03:26.598Z,3450
2017-04-08T08:04:07.601Z,3435
2017-04-08T08:04:48.183Z,3440
2017-04-08T08:05:28.764Z,3425
2017-04-08T08:06:09.725Z,3400
2017-04-08T08:06:50.297Z,3410
2017-04-08T08:07:31.079Z,3425
2017-04-08T08:08:12.101Z,3420
2017-04-08T08:08:53.087Z,3405
2017-04-08T08:09:33.894Z,3415
2017-04-08T08:10:14.575Z,3415
2017-04-08T08:10:55.337Z,3400
2017-04-08T08:11:36.122Z,3350
2017-04-08T08:12:16.703Z,3325
2017-04-08T08:12:57.283Z,3365
2017-04-08T08:13:37.871Z,3420
2017-04-08T08:14:18.456Z,3410
2017-04-08T08:14:59.039Z,3400
2017-04-08T08:15:39.618Z,3430
2017-04-08T08:16:20.194Z,3450
2017-04-08T08:17:00.781Z,3440
2017-04-08T08:17:41.362Z,3430
2017-04-08T08:18:21.948Z,3400
2017-04-08T08:19:02.529Z,3430
2017-04-08T08:19:43.122Z,3435
2017-04-08T08:20:23.693Z,3425
2017-04-08T08:21:04.282Z,3410
2017-04-08T08:21:44.870Z,3425
2017-04-08T08:22:25.460Z,3415
2017-04-08T08:23:06.040Z,3380
2017-04-08T08:23:46.684Z,3345
2017-04-08T08:24:27.475Z,3360
2017-04-08T08:25:08.061Z,3395
2017-04-08T08:25:48.871Z,3385
2017-04-08T08:26:29.688Z,3405
2017-04-08T08:27:10.333Z,3395
2017-04-08T08:27:51.387Z,3400
2017-04-08T08:28:32.126Z,3395
2017-04-08T08:29:12.929Z,3400
2017-04-08T08:29:53.653Z,3415
2017-04-08T08:30:34.435Z,3415
2017-04-08T08:31:15.018Z,3415
2017-04-08T08:31:55.707Z,3430
2017-04-08T08:32:36.282Z,3425
2017-04-08T08:33:16.875Z,3415
2017-04-08T08:33:57.456Z,3400
2017-04-08T08:34:38.430Z,3380
2017-04-08T08:35:20.014Z,3350
2017-04-08T08:36:00.821Z,3340
2017-04-08T08:36:41.955Z,3340
2017-04-08T08:37:23.100Z,3330
2017-04-08T08:38:03.859Z,3330
2017-04-08T08:38:44.601Z,3345
2017-04-08T08:39:25.186Z,3335
2017-04-08T08:40:06.281Z,3305
2017-04-08T08:40:47.397Z,3285
2017-04-08T08:41:28.273Z,3265
2017-04-08T08:42:09.316Z,3260
2017-04-08T08:42:49.898Z,3260
2017-04-08T08:43:30.833Z,3240
2017-04-08T08:44:11.571Z,3240
2017-04-08T08:44:52.165Z,3235
2017-04-08T08:45:32.823Z,3215
2017-04-08T08:46:13.404Z,3210
2017-04-08T08:46:54.003Z,3210
2017-04-08T08:47:34.674Z,3190
2017-04-08T08:48:15.773Z,3185
2017-04-08T08:48:56.368Z,3200
2017-04-08T08:49:37.144Z,3175
2017-04-08T08:50:17.722Z,3155
2017-04-08T08:50:58.412Z,3145
2017-04-08T08:51:38.996Z,3165
2017-04-08T08:52:19.624Z,3155
2017-04-08T08:53:00.211Z,3160
2017-04-08T08:53:40.790Z,3135
2017-04-08T08:54:21.372Z,3105
2017-04-08T08:55:01.986Z,2910
2017-04-08T08:55:42.562Z,2425
2017-04-08T08:56:23.151Z,1795
2017-04-08T08:57:03.739Z,1155
2017-04-08T08:57:44.330Z,900
2017-04-08T08:58:25.455Z,885
2017-04-08T08:59:06.078Z,880
2017-04-08T08:59:46.697Z,880
2017-04-08T09:00:27.287Z,870
2017-04-08T09:01:07.914Z,865
2017-04-08T09:01:48.526Z,855
2017-04-08T09:02:29.756Z,850
2017-04-08T09:03:10.350Z,845
2017-04-08T09:03:50.944Z,850
2017-04-08T09:04:32.091Z,840
2017-04-08T09:05:12.657Z,835
2017-04-08T09:05:53.235Z,830
2017-04-08T09:06:33.824Z,825
2017-04-08T09:07:14.962Z,820
2017-04-08T09:07:55.539Z,815
2017-04-08T09:08:36.405Z,815
2017-04-08T09:09:18.016Z,810
2017-04-08T09:09:58.620Z,805
2017-04-08T09:10:39.195Z,800
2017-04-08T09:11:19.775Z,800
2017-04-08T09:12:00.365Z,795
2017-04-08T09:12:40.945Z,790
2017-04-08T09:13:21.531Z,785
2017-04-08T09:14:02.113Z,785
2017-04-08T09:14:42.783Z,780
2017-04-08T09:15:24.372Z,775
2017-04-08T09:16:05.697Z,775
2017-04-08T09:16:47.686Z,770
2017-04-08T09:17:29.195Z,770
2017-04-08T09:18:10.535Z,800
2017-04-08T09:18:52.747Z,780
2017-04-08T09:19:34.384Z,775
2017-04-08T09:20:15.743Z,775
2017-04-08T09:20:57.355Z,770
2017-04-08T09:21:38.932Z,765
2017-04-08T09:22:20.402Z,765
2017-04-08T09:23:01.662Z,760
2017-04-08T09:23:43.257Z,755
2017-04-08T09:24:25.635Z,755
2017-04-08T09:25:06.916Z,750
2017-04-08T09:25:49.003Z,775
2017-04-08T09:26:30.548Z,860
2017-04-08T09:27:11.743Z,1010
2017-04-08T09:27:53.639Z,1150
2017-04-08T09:28:35.865Z,1190
2017-04-08T09:29:17.468Z,1145
2017-04-08T09:29:58.762Z,1155
2017-04-08T09:30:39.956Z,1100
2017-04-08T09:31:22.611Z,905
2017-04-08T09:32:03.911Z,730
2017-04-08T09:32:45.322Z,715
2017-04-08T09:33:27.498Z,710
2017-04-08T09:34:08.871Z,705
2017-04-08T09:34:50.021Z,700
2017-04-08T09:35:31.819Z,695
2017-04-08T09:36:13.023Z,690
2017-04-08T09:36:54.358Z,685
2017-04-08T09:37:35.778Z,680
2017-04-08T09:38:17.002Z,675
2017-04-08T09:38:58.011Z,670
2017-04-08T09:39:39.215Z,665
2017-04-08T09:40:20.510Z,660
2017-04-08T09:41:01.967Z,660
2017-04-08T09:41:43.325Z,655
2017-04-08T09:42:24.605Z,650
2017-04-08T09:43:05.978Z,645
2017-04-08T09:43:48.114Z,645
2017-04-08T09:44:29.507Z,640
2017-04-08T09:45:10.792Z,635
2017-04-08T09:45:52.175Z,630
2017-04-08T09:46:33.704Z,630
2017-04-08T09:47:14.917Z,630
2017-04-08T09:47:56.274Z,625
2017-04-08T09:48:37.727Z,625
2017-04-08T09:49:20.394Z,625
2017-04-08T09:50:01.875Z,620
2017-04-08T09:50:43.560Z,620
2017-04-08T09:51:24.955Z,615
2017-04-08T09:52:06.943Z,615
2017-04-08T09:52:48.595Z,610
2017-04-08T09:53:30.087Z,610
2017-04-08T09:54:11.226Z,605
2017-04-08T09:54:52.467Z,600
2017-04-08T09:55:34.509Z,600
2017-04-08T09:56:15.891Z,595
2017-04-08T09:56:58.436Z,595
2017-04-08T09:57:39.721Z,590
2017-04-08T09:58:21.016Z,590
2017-04-08T09:59:02.239Z,585
2017-04-08T13:31:19.309Z,370
2017-04-08T13:32:00.024Z,370
2017-04-08T13:32:40.838Z,365
2017-04-08T13:33:21.499Z,365
2017-04-08T13:34:02.291Z,370
2017-04-08T13:34:43.097Z,370
2017-04-08T13:35:23.824Z,370
2017-04-08T13:36:04.406Z,370
2017-04-08T13:36:44.989Z,370
2017-04-08T13:37:25.566Z,370
2017-04-08T13:38:06.159Z,370
2017-04-08T13:38:46.738Z,370
2017-04-08T13:39:27.321Z,370
2017-04-08T13:40:07.901Z,370
2017-04-08T13:40:48.487Z,370
2017-04-08T13:41:29.217Z,370
2017-04-08T13:42:09.794Z,370
2017-04-08T13:42:50.384Z,365
2017-04-08T13:43:30.960Z,365
2017-04-08T13:44:11.735Z,365
2017-04-08T13:44:52.491Z,365
2017-04-08T13:45:33.615Z,365
2017-04-08T13:46:14.226Z,370
2017-04-08T13:46:55.152Z,370
2017-04-08T13:47:35.818Z,365
2017-04-08T13:48:16.405Z,370
2017-04-08T13:48:56.988Z,370
2017-04-08T13:49:37.563Z,370
2017-04-08T13:50:18.595Z,370
2017-04-08T13:50:59.407Z,370
2017-04-08T13:51:40.182Z,365
2017-04-08T13:52:20.895Z,365
2017-04-08T13:53:01.983Z,365
2017-04-08T13:53:42.560Z,365
2017-04-08T13:54:23.262Z,365
2017-04-08T13:55:03.837Z,365
2017-04-08T13:55:44.519Z,365
2017-04-08T13:56:25.262Z,365
2017-04-08T13:57:05.844Z,360
2017-04-08T13:57:46.679Z,365
2017-04-08T13:58:27.820Z,365
2017-04-08T13:59:08.651Z,365
2017-04-08T13:59:49.605Z,365
2017-04-08T14:00:30.186Z,365
2017-04-08T14:01:10.762Z,365
2017-04-08T14:01:51.353Z,365
2017-04-08T14:02:31.935Z,365
2017-04-08T14:03:12.516Z,365
2017-04-08T14:03:53.101Z,365
2017-04-08T14:04:33.685Z,365
2017-04-08T14:05:14.269Z,360
2017-04-08T14:05:54.838Z,360
2017-04-08T14:06:35.420Z,360
2017-04-08T14:07:16.215Z,360
2017-04-08T14:07:56.850Z,360
2017-04-08T14:08:37.433Z,360
2017-04-08T14:09:18.023Z,360
2017-04-08T14:09:58.891Z,360
2017-04-08T14:10:39.465Z,360
2017-04-08T14:11:20.193Z,360
2017-04-08T14:12:00.970Z,360
2017-04-08T14:12:41.991Z,360
2017-04-08T14:13:22.879Z,360
2017-04-08T14:14:03.756Z,360
2017-04-08T14:14:44.644Z,360
2017-04-08T14:15:25.564Z,360
2017-04-08T14:16:06.453Z,360
2017-04-08T14:16:47.418Z,360
2017-04-08T14:17:28.175Z,360
2017-04-08T14:18:09.159Z,360
2017-04-08T14:18:50.025Z,360
2017-04-08T14:19:30.894Z,360
2017-04-08T14:20:11.778Z,360
2017-04-08T14:20:52.885Z,360
2017-04-08T14:21:34.028Z,360
2017-04-08T14:22:14.848Z,360
2017-04-08T14:22:55.673Z,360
2017-04-08T14:23:36.643Z,360
2017-04-08T14:24:17.591Z,360
2017-04-08T14:24:58.578Z,360
2017-04-08T14:25:39.394Z,360
2017-04-08T14:26:20.589Z,360
2017-04-08T14:27:01.731Z,360
2017-04-08T14:27:42.729Z,360
2017-04-08T14:28:23.565Z,360
2017-04-08T14:29:04.406Z,360
2017-04-08T14:29:45.169Z,360
2017-04-08T14:30:26.155Z,355
2017-04-08T14:31:07.302Z,355
2017-04-08T14:31:48.106Z,355
2017-04-08T14:32:28.845Z,355
2017-04-08T14:33:10.023Z,355
2017-04-08T14:33:50.597Z,355
2017-04-08T14:34:31.174Z,355
2017-04-08T14:35:11.754Z,355
2017-04-08T14:35:52.335Z,355
2017-04-08T14:36:32.917Z,355
2017-04-08T14:37:13.489Z,355
2017-04-08T14:37:54.079Z,355
2017-04-08T14:38:34.663Z,355
2017-04-08T14:39:15.240Z,355
2017-04-08T14:39:55.833Z,355
2017-04-08T14:40:36.407Z,355
2017-04-08T14:41:16.989Z,355
2017-04-08T14:41:57.574Z,355
2017-04-08T14:42:38.153Z,355
2017-04-08T14:43:18.747Z,350
2017-04-08T14:43:59.324Z,350
2017-04-08T14:44:39.906Z,350
2017-04-08T14:45:20.486Z,350
2017-04-08T14:46:01.070Z,350
2017-04-08T14:46:41.645Z,350
2017-04-08T14:47:22.241Z,350
2017-04-08T14:48:02.820Z,350
2017-04-08T14:48:43.402Z,350
2017-04-08T14:49:23.984Z,350
2017-04-08T14:50:04.575Z,350
2017-04-08T14:50:45.156Z,350
2017-04-08T14:51:25.741Z,350
2017-04-08T14:52:06.321Z,350
2017-04-08T14:52:46.909Z,345
2017-04-08T14:53:27.517Z,345
2017-04-08T14:54:08.074Z,345
2017-04-08T14:54:48.649Z,345
2017-04-08T14:55:29.236Z,345
2017-04-08T14:56:09.820Z,340
2017-04-08T14:56:50.404Z,340
2017-04-08T14:57:30.979Z,340
2017-04-08T14:58:11.564Z,340
2017-04-08T14:58:52.154Z,340
2017-04-08T14:59:32.735Z,340
2017-04-08T15:00:13.320Z,340
2017-04-08T15:00:53.906Z,340
2017-04-08T15:01:34.481Z,340
2017-04-08T15:02:15.063Z,340
2017-04-08T15:02:55.645Z,340
2017-04-08T15:03:36.311Z,340
2017-04-08T15:04:16.892Z,340
2017-04-08T15:04:57.465Z,340
2017-04-08T15:05:38.057Z,335
2017-04-08T15:06:18.632Z,335
2017-04-08T15:06:59.212Z,335
2017-04-08T15:07:39.797Z,335
2017-04-08T15:08:20.378Z,335
2017-04-08T15:09:00.959Z,335
2017-04-08T15:09:41.540Z,335
2017-04-08T15:10:22.126Z,330
2017-04-08T15:11:02.710Z,330
2017-04-08T15:11:43.288Z,335
2017-04-08T15:12:23.846Z,330
2017-04-08T15:13:04.421Z,330
2017-04-08T15:13:45.005Z,330
2017-04-08T15:14:25.586Z,330
2017-04-08T15:15:06.171Z,330
2017-04-08T15:15:46.754Z,325
2017-04-08T15:16:27.341Z,325
2017-04-08T15:17:07.931Z,325
2017-04-08T15:17:48.515Z,325
2017-04-08T15:18:29.087Z,325
2017-04-08T15:19:09.678Z,325
2017-04-08T15:19:50.259Z,320
2017-04-08T15:20:30.835Z,320
2017-04-08T15:21:11.419Z,320
2017-04-08T15:21:52.004Z,320
2017-04-08T15:22:32.594Z,320
2017-04-08T15:23:13.171Z,320
2017-04-08T15:23:53.755Z,320
2017-04-08T15:24:34.341Z,315
2017-04-08T15:25:14.925Z,315
2017-04-08T15:25:55.517Z,315
2017-04-08T15:26:36.086Z,315
2017-04-08T15:27:16.672Z,315
2017-04-08T15:27:57.250Z,315
2017-04-08T15:28:37.829Z,315
2017-04-08T15:29:18.413Z,310
2017-04-08T15:29:58.978Z,310
2017-04-08T15:30:39.556Z,310
2017-04-08T15:31:20.143Z,310
2017-04-08T15:32:00.725Z,310
2017-04-08T15:32:41.306Z,310
2017-04-08T15:33:21.886Z,310
2017-04-08T15:34:02.464Z,310
2017-04-08T15:34:43.045Z,310
2017-04-08T15:35:23.640Z,310
2017-04-08T15:36:04.249Z,310
2017-04-08T15:36:45.140Z,305
2017-04-08T15:37:26.837Z,305
2017-04-08T15:38:08.069Z,305
2017-04-08T15:38:49.245Z,305
2017-04-08T15:39:29.942Z,305
2017-04-08T15:40:10.930Z,300
2017-04-08T15:40:51.666Z,300
2017-04-08T15:41:32.552Z,300
2017-04-08T15:42:13.532Z,300
2017-04-08T15:42:54.359Z,295
2017-04-08T15:43:35.020Z,295
2017-04-08T15:44:15.976Z,295
2017-04-08T15:44:56.591Z,290
2017-04-08T15:45:37.503Z,290
2017-04-08T15:46:18.304Z,290
2017-04-08T15:46:59.275Z,290
2017-04-08T15:47:40.103Z,285
2017-04-08T15:48:21.002Z,285
2017-04-08T15:49:01.949Z,285
2017-04-08T15:49:42.534Z,285
2017-04-08T15:50:23.116Z,285
2017-04-08T15:51:03.919Z,285
2017-04-08T15:51:44.504Z,280
2017-04-08T15:52:25.678Z,280
2017-04-08T15:53:06.493Z,280
2017-04-08T15:53:47.344Z,280
2017-04-08T15:54:28.301Z,275
2017-04-08T15:55:09.041Z,275
2017-04-08T15:55:50.025Z,275
2017-04-08T15:56:30.805Z,275
2017-04-08T15:57:11.974Z,270
2017-04-08T15:57:52.839Z,270
2017-04-08T15:58:33.738Z,270
2017-04-08T15:59:14.646Z,270
2017-04-08T15:59:55.384Z,270
2017-04-08T16:00:36.302Z,270
2017-04-08T16:01:17.357Z,265
2017-04-08T16:01:58.382Z,265
2017-04-08T16:02:39.298Z,265
2017-04-08T16:03:19.884Z,260
2017-04-08T16:04:00.460Z,260
2017-04-08T16:04:41.047Z,260
2017-04-08T16:05:21.658Z,260
2017-04-08T16:06:02.202Z,260
2017-04-08T16:06:42.940Z,255
2017-04-08T16:07:23.521Z,255
2017-04-08T16:08:04.104Z,255
2017-04-08T16:08:44.686Z,255
2017-04-08T16:09:25.263Z,255
2017-04-08T16:10:05.844Z,250
2017-04-08T16:10:46.689Z,250
2017-04-08T16:11:27.263Z,250
2017-04-08T16:12:07.839Z,245
2017-04-08T16:12:48.662Z,245
2017-04-08T16:13:29.243Z,245
2017-04-08T16:14:10.095Z,240
2017-04-08T16:14:51.153Z,240
2017-04-08T16:15:31.740Z,235
2017-04-08T16:16:12.321Z,235
2017-04-08T16:16:52.902Z,235
2017-04-08T16:17:33.486Z,230
2017-04-08T16:18:14.067Z,230
2017-04-08T16:18:54.641Z,230
2017-04-08T16:19:35.223Z,230
2017-04-08T16:20:15.809Z,225
2017-04-08T16:20:56.395Z,225
2017-04-08T16:21:36.979Z,225
2017-04-08T16:22:17.561Z,225
2017-04-08T16:22:58.141Z,220
2017-04-08T16:23:38.724Z,220
2017-04-08T16:24:19.296Z,220
2017-04-08T16:24:59.975Z,215
2017-04-08T16:25:40.556Z,215
2017-04-08T16:26:21.144Z,215
2017-04-08T16:27:01.730Z,210
2017-04-08T16:27:42.309Z,210
2017-04-08T16:28:22.893Z,210
2017-04-08T16:29:03.480Z,205
2017-04-08T16:29:44.062Z,205
2017-04-08T16:30:24.642Z,205
2017-04-08T16:31:05.223Z,205
2017-04-08T16:31:45.808Z,200
2017-04-08T16:32:26.396Z,200
2017-04-08T16:33:06.969Z,200
2017-04-08T16:33:47.563Z,195
2017-04-08T16:34:28.141Z,195
2017-04-08T16:35:08.733Z,195
2017-04-08T16:35:49.313Z,195
2017-04-08T16:36:29.893Z,190
2017-04-08T16:37:10.463Z,190
2017-04-08T16:37:51.049Z,190
2017-04-08T16:38:31.637Z,185
2017-04-08T16:39:12.218Z,185
2017-04-08T16:39:52.800Z,185
2017-04-08T16:40:33.392Z,185
2017-04-08T16:41:13.969Z,180
2017-04-08T16:41:54.558Z,180
2017-04-08T16:42:35.135Z,180
2017-04-08T16:43:15.721Z,175
2017-04-08T16:43:56.302Z,175
2017-04-08T16:44:36.889Z,175
2017-04-08T16:45:17.475Z,170
2017-04-08T16:45:58.055Z,170
2017-04-08T16:46:38.638Z,170
2017-04-08T16:47:19.224Z,170
2017-04-08T16:47:59.800Z,165
2017-04-08T16:48:40.381Z,165
2017-04-08T16:49:20.976Z,165
2017-04-08T16:50:01.561Z,160
2017-04-08T16:50:42.147Z,160
2017-04-08T16:51:23.410Z,160
2017-04-08T16:52:04.054Z,155
2017-04-08T16:52:44.639Z,155
2017-04-08T16:53:25.221Z,155
2017-04-08T16:54:06.046Z,150
2017-04-08T16:54:46.628Z,150
2017-04-08T16:55:27.211Z,150
2017-04-08T16:56:07.789Z,145
2017-04-08T16:56:48.382Z,145
2017-04-08T16:57:28.964Z,145
2017-04-08T16:58:09.549Z,140
2017-04-08T16:58:50.128Z,140
2017-04-08T16:59:30.708Z,140
2017-04-08T17:00:11.302Z,140
2017-04-08T17:00:51.881Z,135
2017-04-08T17:01:32.473Z,135
2017-04-08T17:02:13.057Z,135
2017-04-08T17:02:53.644Z,130
2017-04-08T17:03:34.230Z,130
2017-04-08T17:04:14.811Z,130
2017-04-08T17:04:55.399Z,125
2017-04-08T17:05:35.986Z,125
2017-04-08T17:06:16.574Z,125
2017-04-08T17:06:57.163Z,125
2017-04-08T17:07:37.745Z,120
2017-04-08T17:08:18.340Z,120
2017-04-08T17:08:58.927Z,120
2017-04-08T17:09:39.505Z,115
2017-04-08T17:10:20.093Z,115
2017-04-08T17:11:00.667Z,115
2017-04-08T17:11:41.253Z,110
2017-04-08T17:12:21.836Z,110
2017-04-08T17:13:02.439Z,110
2017-04-08T17:13:43.053Z,105
2017-04-08T17:14:23.742Z,105
2017-04-08T17:15:04.325Z,105
2017-04-08T17:15:44.907Z,100
2017-04-08T17:16:25.495Z,100
2017-04-08T17:17:06.082Z,100
2017-04-08T17:17:46.671Z,95
2017-04-08T17:18:27.257Z,95
2017-04-08T17:19:07.839Z,95
2017-04-08T17:21:58.685Z,85
2017-04-08T17:22:39.265Z,85
2017-04-08T17:23:19.851Z,80
2017-04-08T17:24:00.438Z,80
2017-04-08T17:24:41.024Z,80
2017-04-08T17:25:21.691Z,75
2017-04-08T17:26:03.234Z,75
2017-04-08T17:26:45.516Z,75
2017-04-08T17:27:27.004Z,70
2017-04-08T17:28:08.410Z,70
2017-04-08T17:28:49.967Z,70
2017-04-08T17:29:32.037Z,65
2017-04-08T17:30:13.482Z,65
2017-04-08T17:30:54.916Z,65
2017-04-08T17:31:36.040Z,60
2017-04-08T17:32:17.343Z,60
2017-04-08T17:32:59.558Z,60
2017-04-08T17:33:40.873Z,55
2017-04-08T17:34:23.270Z,55
2017-04-08T17:35:04.781Z,55
2017-04-08T17:35:47.012Z,50
2017-04-08T17:36:28.321Z,50
2017-04-08T17:37:09.503Z,50
2017-04-08T17:37:50.944Z,45
2017-04-08T17:38:32.271Z,45
2017-04-08T17:39:13.436Z,45
2017-04-08T17:39:54.982Z,40
2017-04-08T17:40:36.264Z,40
2017-04-08T17:41:17.598Z,40
2017-04-08T17:41:58.900Z,35
2017-04-08T17:42:40.274Z,35
2017-04-08T17:43:21.918Z,35
2017-04-08T17:44:03.172Z,30
2017-04-08T17:44:44.540Z,30
2017-04-08T17:45:25.977Z,30
2017-04-08T17:46:07.184Z,30
2017-04-08T17:46:48.557Z,25
2017-04-08T17:47:29.703Z,25
2017-04-08T17:48:11.265Z,25
2017-04-08T17:48:52.685Z,25
2017-04-08T17:49:34.746Z,20
2017-04-08T17:50:15.988Z,20
2017-04-08T17:50:57.196Z,20
2017-04-08T17:51:38.625Z,20
2017-04-08T17:52:19.809Z,15
2017-04-08T17:53:00.993Z,15
2017-04-08T17:53:42.381Z,15
2017-04-08T17:54:24.029Z,15
2017-04-08T17:55:05.247Z,15
2017-04-08T17:55:46.434Z,10
2017-04-08T17:56:27.600Z,10
2017-04-08T17:57:09.015Z,10
2017-04-08T17:57:51.080Z,10
2017-04-08T17:58:32.677Z,10
2017-04-08T17:59:17.208Z,5
2017-04-08T17:59:58.686Z,5
2017-04-08T18:00:39.902Z,5
2017-04-08T18:01:21.855Z,5
2017-04-08T18:02:03.458Z,5
2017-04-08T18:02:44.843Z,5
2017-04-08T18:03:26.010Z,5
2017-04-08T18:04:07.519Z,5
2017-04-08T18:04:48.770Z,0
2017-04-08T18:05:31.111Z,0
2017-04-08T18:06:12.699Z,0
2017-04-08T18:06:53.838Z,0
2017-04-08T18:07:35.035Z,0
2017-04-08T18:08:16.518Z,0
2017-04-08T18:08:58.027Z,0
2017-04-08T18:09:39.481Z,0
2017-04-08T18:10:20.995Z,0
2017-04-08T18:11:02.661Z,0
2017-04-08T18:11:44.819Z,0
2017-04-08T18:12:26.248Z,0
2017-04-08T18:13:07.482Z,0
2017-04-08T18:13:48.650Z,0
2017-04-08T18:14:30.110Z,0
2017-04-08T18:15:11.592Z,0
2017-04-08T18:15:52.829Z,0
2017-04-08T18:16:34.098Z,0
2017-04-08T18:17:15.467Z,0
2017-04-08T18:17:57.501Z,0
2017-04-08T18:18:39.097Z,0
2017-04-08T18:19:20.440Z,0
2017-04-08T18:20:01.640Z,0
2017-04-08T18:20:43.036Z,0
2017-04-08T18:21:24.302Z,0
2017-04-08T18:22:05.408Z,0
2017-04-08T18:22:46.808Z,0
2017-04-08T18:23:29.902Z,0
2017-04-08T18:24:11.213Z,0
2017-04-08T18:24:52.649Z,0
2017-04-08T18:25:33.956Z,0
2017-04-08T18:26:17.244Z,0
2017-04-08T18:26:58.897Z,0
2017-04-08T18:27:40.283Z,0
2017-04-08T18:28:21.600Z,0
2017-04-08T18:29:02.738Z,0
2017-04-08T18:29:43.931Z,0
2017-04-08T18:30:25.163Z,0
2017-04-08T18:31:06.286Z,0
2017-04-08T18:31:47.955Z,0
2017-04-08T18:32:29.212Z,0
2017-04-08T18:33:10.743Z,0
2017-04-08T18:33:52.411Z,0
2017-04-08T18:34:33.881Z,0
2017-04-08T18:35:15.261Z,0
2017-04-08T18:35:56.524Z,0
2017-04-08T18:36:38.103Z,0
2017-04-08T18:37:20.643Z,0
2017-04-08T18:38:02.101Z,0
2017-04-08T18:38:43.617Z,0
2017-04-08T18:39:25.477Z,0
2017-04-08T18:40:07.334Z,0
2017-04-08T18:40:48.524Z,0
2017-04-08T18:41:29.966Z,0
2017-04-08T18:42:11.497Z,0
2017-04-08T18:42:52.758Z,0
2017-04-08T18:43:34.128Z,0
2017-04-08T18:44:15.656Z,0
2017-04-08T18:44:57.306Z,0
2017-04-08T18:45:39.037Z,0
2017-04-08T18:46:20.702Z,0
2017-04-08T18:47:01.990Z,0
2017-04-08T18:47:43.069Z,0
2017-04-08T18:48:24.668Z,0
2017-04-08T18:49:05.674Z,0
2017-04-08T18:49:48.710Z,0
2017-04-08T18:50:30.437Z,0
2017-04-08T18:51:11.926Z,0
2017-04-08T18:51:53.342Z,0
2017-04-08T18:52:35.016Z,0
2017-04-08T18:53:16.409Z,0
2017-04-08T18:53:57.829Z,0
2017-04-08T18:54:39.541Z,0
2017-04-08T18:55:20.979Z,0
2017-04-08T18:56:02.780Z,0
2017-04-08T18:56:44.880Z,0
2017-04-08T18:57:26.143Z,0
2017-04-08T18:58:08.454Z,0
2017-04-08T18:58:49.734Z,0
2017-04-08T18:59:31.076Z,0
2017-04-08T19:00:12.519Z,0
2017-04-08T19:00:53.717Z,0
2017-04-08T19:01:35.098Z,0
2017-04-08T19:02:16.310Z,0
2017-04-08T19:02:57.971Z,0
2017-04-08T19:03:40.277Z,0
2017-04-08T19:04:21.555Z,0
2017-04-08T19:05:02.819Z,0
2017-04-08T19:05:44.825Z,0
2017-04-08T19:06:26.074Z,0
2017-04-08T19:07:07.485Z,0
2017-04-08T19:07:48.865Z,0
2017-04-08T19:08:29.922Z,0
2017-04-08T19:09:12.374Z,0
2017-04-08T19:09:53.711Z,0
2017-04-08T19:10:35.157Z,0
2017-04-08T19:11:16.577Z,0
2017-04-08T19:11:57.997Z,0
2017-04-08T19:12:39.568Z,0
2017-04-08T19:13:20.869Z,0
2017-04-08T19:14:02.389Z,0
2017-04-08T19:14:43.724Z,0
2017-04-08T19:15:25.141Z,0
2017-04-08T19:16:07.101Z,0
2017-04-08T19:16:48.406Z,0
